sensor_id;sensor_type;location;lat;lon;timestamp;temperature;humidity
17208;DHT22;8720;48.488;9.202;2022-12-18T00:01:23;-7.80;49.70
17208;DHT22;8720;48.488;9.202;2022-12-18T00:03:53;-7.80;49.70
17208;DHT22;8720;48.488;9.202;2022-12-18T00:06:24;-7.90;49.60
17208;DHT22;8720;48.488;9.202;2022-12-18T00:08:55;-7.90;49.60
17208;DHT22;8720;48.488;9.202;2022-12-18T00:11:26;-7.90;49.60
17208;DHT22;8720;48.488;9.202;2022-12-18T00:13:56;-8.00;49.50
17208;DHT22;8720;48.488;9.202;2022-12-18T00:16:26;-8.00;49.50
17208;DHT22;8720;48.488;9.202;2022-12-18T00:18:57;-8.00;49.50
17208;DHT22;8720;48.488;9.202;2022-12-18T00:21:24;-8.00;49.50
17208;DHT22;8720;48.488;9.202;2022-12-18T00:23:56;-8.10;49.40
17208;DHT22;8720;48.488;9.202;2022-12-18T00:26:25;-8.10;49.30
17208;DHT22;8720;48.488;9.202;2022-12-18T00:28:59;-8.10;49.30
17208;DHT22;8720;48.488;9.202;2022-12-18T00:31:30;-8.10;49.20
17208;DHT22;8720;48.488;9.202;2022-12-18T00:33:59;-8.10;49.10
17208;DHT22;8720;48.488;9.202;2022-12-18T00:36:28;-8.20;49.00
17208;DHT22;8720;48.488;9.202;2022-12-18T00:38:59;-8.20;48.90
17208;DHT22;8720;48.488;9.202;2022-12-18T00:41:28;-8.20;48.80
17208;DHT22;8720;48.488;9.202;2022-12-18T00:44:14;-8.30;48.80
17208;DHT22;8720;48.488;9.202;2022-12-18T00:46:43;-8.30;48.80
17208;DHT22;8720;48.488;9.202;2022-12-18T00:49:11;-8.30;48.80
17208;DHT22;8720;48.488;9.202;2022-12-18T00:51:38;-8.40;48.60
17208;DHT22;8720;48.488;9.202;2022-12-18T00:54:07;-8.40;48.60
17208;DHT22;8720;48.488;9.202;2022-12-18T00:56:35;-8.50;48.50
17208;DHT22;8720;48.488;9.202;2022-12-18T00:59:04;-8.50;48.50
17208;DHT22;8720;48.488;9.202;2022-12-18T01:01:31;-8.50;48.50
17208;DHT22;8720;48.488;9.202;2022-12-18T01:04:00;-8.60;48.30
17208;DHT22;8720;48.488;9.202;2022-12-18T01:06:27;-8.60;48.30
17208;DHT22;8720;48.488;9.202;2022-12-18T01:08:55;-8.60;48.30
17208;DHT22;8720;48.488;9.202;2022-12-18T01:11:24;-8.60;48.30
17208;DHT22;8720;48.488;9.202;2022-12-18T01:13:53;-8.70;48.20
17208;DHT22;8720;48.488;9.202;2022-12-18T01:16:22;-8.70;48.30
17208;DHT22;8720;48.488;9.202;2022-12-18T01:18:52;-8.70;48.40
17208;DHT22;8720;48.488;9.202;2022-12-18T01:21:20;-8.70;48.50
17208;DHT22;8720;48.488;9.202;2022-12-18T01:23:52;-8.70;48.50
17208;DHT22;8720;48.488;9.202;2022-12-18T01:26:20;-8.70;48.40
17208;DHT22;8720;48.488;9.202;2022-12-18T01:28:49;-8.70;48.40
17208;DHT22;8720;48.488;9.202;2022-12-18T01:31:18;-8.80;48.40
17208;DHT22;8720;48.488;9.202;2022-12-18T01:33:46;-8.80;48.30
17208;DHT22;8720;48.488;9.202;2022-12-18T01:36:18;-8.80;48.30
17208;DHT22;8720;48.488;9.202;2022-12-18T01:38:47;-8.90;48.20
17208;DHT22;8720;48.488;9.202;2022-12-18T01:41:17;-8.90;48.20
17208;DHT22;8720;48.488;9.202;2022-12-18T01:43:52;-8.90;48.20
17208;DHT22;8720;48.488;9.202;2022-12-18T01:46:22;-8.90;48.30
17208;DHT22;8720;48.488;9.202;2022-12-18T01:48:53;-8.90;48.30
17208;DHT22;8720;48.488;9.202;2022-12-18T01:51:24;-8.90;48.30
17208;DHT22;8720;48.488;9.202;2022-12-18T01:53:53;-8.90;48.30
17208;DHT22;8720;48.488;9.202;2022-12-18T01:56:21;-8.90;48.30
17208;DHT22;8720;48.488;9.202;2022-12-18T01:58:54;-8.90;48.30
17208;DHT22;8720;48.488;9.202;2022-12-18T02:01:28;-8.90;48.40
17208;DHT22;8720;48.488;9.202;2022-12-18T02:04:19;-8.90;48.50
17208;DHT22;8720;48.488;9.202;2022-12-18T02:06:50;-8.90;49.20
17208;DHT22;8720;48.488;9.202;2022-12-18T02:09:27;-8.90;48.70
17208;DHT22;8720;48.488;9.202;2022-12-18T02:12:02;-8.90;48.80
17208;DHT22;8720;48.488;9.202;2022-12-18T02:14:38;-8.80;48.80
17208;DHT22;8720;48.488;9.202;2022-12-18T02:17:14;-8.80;48.90
17208;DHT22;8720;48.488;9.202;2022-12-18T02:19:57;-8.80;48.90
17208;DHT22;8720;48.488;9.202;2022-12-18T02:22:39;-8.70;49.00
17208;DHT22;8720;48.488;9.202;2022-12-18T02:25:25;-8.70;49.00
17208;DHT22;8720;48.488;9.202;2022-12-18T02:28:12;-8.70;49.10
17208;DHT22;8720;48.488;9.202;2022-12-18T02:30:43;-8.70;49.00
17208;DHT22;8720;48.488;9.202;2022-12-18T02:33:15;-8.60;49.10
17208;DHT22;8720;48.488;9.202;2022-12-18T02:35:44;-8.60;49.10
17208;DHT22;8720;48.488;9.202;2022-12-18T02:38:13;-8.60;49.20
17208;DHT22;8720;48.488;9.202;2022-12-18T02:40:46;-8.60;49.10
17208;DHT22;8720;48.488;9.202;2022-12-18T02:43:18;-8.60;49.10
17208;DHT22;8720;48.488;9.202;2022-12-18T02:45:47;-8.50;49.20
17208;DHT22;8720;48.488;9.202;2022-12-18T02:48:19;-8.50;49.20
17208;DHT22;8720;48.488;9.202;2022-12-18T02:50:57;-8.50;49.20
17208;DHT22;8720;48.488;9.202;2022-12-18T02:53:36;-8.50;49.20
17208;DHT22;8720;48.488;9.202;2022-12-18T02:56:11;-8.50;49.10
17208;DHT22;8720;48.488;9.202;2022-12-18T02:58:50;-8.50;49.00
17208;DHT22;8720;48.488;9.202;2022-12-18T03:01:45;-8.40;49.00
17208;DHT22;8720;48.488;9.202;2022-12-18T03:04:23;-8.40;49.00
17208;DHT22;8720;48.488;9.202;2022-12-18T03:06:57;-8.40;48.90
17208;DHT22;8720;48.488;9.202;2022-12-18T03:09:31;-8.50;48.70
17208;DHT22;8720;48.488;9.202;2022-12-18T03:12:08;-8.50;48.60
17208;DHT22;8720;48.488;9.202;2022-12-18T03:14:57;-8.50;48.70
17208;DHT22;8720;48.488;9.202;2022-12-18T03:17:32;-8.50;48.60
17208;DHT22;8720;48.488;9.202;2022-12-18T03:20:04;-8.50;48.70
17208;DHT22;8720;48.488;9.202;2022-12-18T03:22:37;-8.50;48.60
17208;DHT22;8720;48.488;9.202;2022-12-18T03:25:09;-8.50;48.60
17208;DHT22;8720;48.488;9.202;2022-12-18T03:27:43;-8.50;48.60
17208;DHT22;8720;48.488;9.202;2022-12-18T03:30:17;-8.50;48.70
17208;DHT22;8720;48.488;9.202;2022-12-18T03:32:48;-8.50;48.70
17208;DHT22;8720;48.488;9.202;2022-12-18T03:35:24;-8.50;48.80
17208;DHT22;8720;48.488;9.202;2022-12-18T03:37:56;-8.60;48.70
17208;DHT22;8720;48.488;9.202;2022-12-18T03:40:31;-8.60;48.70
17208;DHT22;8720;48.488;9.202;2022-12-18T03:43:11;-8.60;48.70
17208;DHT22;8720;48.488;9.202;2022-12-18T03:45:51;-8.60;48.80
17208;DHT22;8720;48.488;9.202;2022-12-18T03:48:27;-8.60;48.80
17208;DHT22;8720;48.488;9.202;2022-12-18T03:51:07;-8.60;48.80
17208;DHT22;8720;48.488;9.202;2022-12-18T03:53:46;-8.60;48.90
17208;DHT22;8720;48.488;9.202;2022-12-18T03:56:24;-8.60;49.00
17208;DHT22;8720;48.488;9.202;2022-12-18T03:58:54;-8.60;49.10
17208;DHT22;8720;48.488;9.202;2022-12-18T04:01:30;-8.60;49.20
17208;DHT22;8720;48.488;9.202;2022-12-18T04:04:02;-8.60;49.20
17208;DHT22;8720;48.488;9.202;2022-12-18T04:06:36;-8.60;49.10
17208;DHT22;8720;48.488;9.202;2022-12-18T04:09:04;-8.60;49.10
17208;DHT22;8720;48.488;9.202;2022-12-18T04:11:37;-8.60;49.00
17208;DHT22;8720;48.488;9.202;2022-12-18T04:14:06;-8.60;49.00
17208;DHT22;8720;48.488;9.202;2022-12-18T04:16:35;-8.60;48.90
17208;DHT22;8720;48.488;9.202;2022-12-18T04:19:04;-8.60;48.90
17208;DHT22;8720;48.488;9.202;2022-12-18T04:21:38;-8.60;48.90
17208;DHT22;8720;48.488;9.202;2022-12-18T04:24:06;-8.60;48.90
17208;DHT22;8720;48.488;9.202;2022-12-18T04:26:36;-8.60;48.80
17208;DHT22;8720;48.488;9.202;2022-12-18T04:29:16;-8.60;48.80
17208;DHT22;8720;48.488;9.202;2022-12-18T04:31:44;-8.70;48.80
17208;DHT22;8720;48.488;9.202;2022-12-18T04:34:12;-8.60;48.80
17208;DHT22;8720;48.488;9.202;2022-12-18T04:36:46;-8.60;48.80
17208;DHT22;8720;48.488;9.202;2022-12-18T04:39:14;-8.70;48.70
17208;DHT22;8720;48.488;9.202;2022-12-18T04:41:47;-8.70;48.70
17208;DHT22;8720;48.488;9.202;2022-12-18T04:44:14;-8.70;48.60
17208;DHT22;8720;48.488;9.202;2022-12-18T04:46:41;-8.60;48.80
17208;DHT22;8720;48.488;9.202;2022-12-18T04:49:10;-8.70;49.30
17208;DHT22;8720;48.488;9.202;2022-12-18T04:51:38;-8.70;48.90
17208;DHT22;8720;48.488;9.202;2022-12-18T04:54:05;-8.60;49.70
17208;DHT22;8720;48.488;9.202;2022-12-18T04:56:32;-8.60;49.30
17208;DHT22;8720;48.488;9.202;2022-12-18T04:58:59;-8.60;49.30
17208;DHT22;8720;48.488;9.202;2022-12-18T05:01:27;-8.60;49.30
17208;DHT22;8720;48.488;9.202;2022-12-18T05:03:54;-8.60;49.40
17208;DHT22;8720;48.488;9.202;2022-12-18T05:06:22;-8.60;49.30
17208;DHT22;8720;48.488;9.202;2022-12-18T05:08:50;-8.60;49.20
17208;DHT22;8720;48.488;9.202;2022-12-18T05:11:17;-8.60;49.10
17208;DHT22;8720;48.488;9.202;2022-12-18T05:13:45;-8.60;48.90
17208;DHT22;8720;48.488;9.202;2022-12-18T05:16:13;-8.60;48.80
17208;DHT22;8720;48.488;9.202;2022-12-18T05:18:41;-8.60;48.60
17208;DHT22;8720;48.488;9.202;2022-12-18T05:21:08;-8.60;48.60
17208;DHT22;8720;48.488;9.202;2022-12-18T05:23:37;-8.70;48.50
17208;DHT22;8720;48.488;9.202;2022-12-18T05:26:06;-8.70;49.10
17208;DHT22;8720;48.488;9.202;2022-12-18T05:28:35;-8.80;48.50
17208;DHT22;8720;48.488;9.202;2022-12-18T05:31:03;-8.70;48.60
17208;DHT22;8720;48.488;9.202;2022-12-18T05:33:33;-8.80;48.60
17208;DHT22;8720;48.488;9.202;2022-12-18T05:36:02;-8.80;48.50
17208;DHT22;8720;48.488;9.202;2022-12-18T05:38:32;-8.80;48.40
17208;DHT22;8720;48.488;9.202;2022-12-18T05:41:03;-8.80;48.40
17208;DHT22;8720;48.488;9.202;2022-12-18T05:43:34;-8.80;48.40
17208;DHT22;8720;48.488;9.202;2022-12-18T05:46:04;-8.80;48.30
17208;DHT22;8720;48.488;9.202;2022-12-18T05:48:32;-8.80;48.30
17208;DHT22;8720;48.488;9.202;2022-12-18T05:51:06;-8.90;48.10
17208;DHT22;8720;48.488;9.202;2022-12-18T05:53:36;-8.90;48.00
17208;DHT22;8720;48.488;9.202;2022-12-18T05:56:06;-8.90;48.00
17208;DHT22;8720;48.488;9.202;2022-12-18T05:58:35;-8.90;47.90
17208;DHT22;8720;48.488;9.202;2022-12-18T06:01:08;-8.90;47.90
17208;DHT22;8720;48.488;9.202;2022-12-18T06:03:37;-9.00;47.70
17208;DHT22;8720;48.488;9.202;2022-12-18T06:06:12;-9.00;47.70
17208;DHT22;8720;48.488;9.202;2022-12-18T06:08:41;-9.00;47.70
17208;DHT22;8720;48.488;9.202;2022-12-18T06:11:10;-9.00;47.70
17208;DHT22;8720;48.488;9.202;2022-12-18T06:13:37;-9.10;47.60
17208;DHT22;8720;48.488;9.202;2022-12-18T06:16:05;-9.00;47.70
17208;DHT22;8720;48.488;9.202;2022-12-18T06:18:34;-9.10;47.70
17208;DHT22;8720;48.488;9.202;2022-12-18T06:21:04;-9.10;47.80
17208;DHT22;8720;48.488;9.202;2022-12-18T06:23:31;-9.10;47.90
17208;DHT22;8720;48.488;9.202;2022-12-18T06:26:02;-9.10;47.80
17208;DHT22;8720;48.488;9.202;2022-12-18T06:28:32;-9.10;47.80
17208;DHT22;8720;48.488;9.202;2022-12-18T06:30:59;-9.10;47.90
17208;DHT22;8720;48.488;9.202;2022-12-18T06:33:27;-9.10;48.00
17208;DHT22;8720;48.488;9.202;2022-12-18T06:36:00;-9.10;48.20
17208;DHT22;8720;48.488;9.202;2022-12-18T06:38:28;-9.10;48.30
17208;DHT22;8720;48.488;9.202;2022-12-18T06:40:55;-9.10;48.40
17208;DHT22;8720;48.488;9.202;2022-12-18T06:43:23;-9.10;48.40
17208;DHT22;8720;48.488;9.202;2022-12-18T06:45:58;-9.10;48.40
17208;DHT22;8720;48.488;9.202;2022-12-18T06:48:26;-9.10;48.50
17208;DHT22;8720;48.488;9.202;2022-12-18T06:50:53;-9.10;48.40
17208;DHT22;8720;48.488;9.202;2022-12-18T06:53:21;-9.10;48.40
17208;DHT22;8720;48.488;9.202;2022-12-18T06:55:48;-9.10;48.40
17208;DHT22;8720;48.488;9.202;2022-12-18T06:58:16;-9.10;48.40
17208;DHT22;8720;48.488;9.202;2022-12-18T07:00:43;-9.10;48.40
17208;DHT22;8720;48.488;9.202;2022-12-18T07:03:12;-9.10;48.40
17208;DHT22;8720;48.488;9.202;2022-12-18T07:05:39;-9.10;48.40
17208;DHT22;8720;48.488;9.202;2022-12-18T07:08:07;-9.10;48.30
17208;DHT22;8720;48.488;9.202;2022-12-18T07:10:41;-9.20;48.20
17208;DHT22;8720;48.488;9.202;2022-12-18T07:13:09;-9.20;48.20
17208;DHT22;8720;48.488;9.202;2022-12-18T07:15:37;-9.10;48.30
17208;DHT22;8720;48.488;9.202;2022-12-18T07:18:04;-9.10;48.20
17208;DHT22;8720;48.488;9.202;2022-12-18T07:20:33;-9.00;48.30
17208;DHT22;8720;48.488;9.202;2022-12-18T07:23:01;-9.10;48.10
17208;DHT22;8720;48.488;9.202;2022-12-18T07:25:29;-9.10;48.00
17208;DHT22;8720;48.488;9.202;2022-12-18T07:27:56;-9.00;48.10
17208;DHT22;8720;48.488;9.202;2022-12-18T07:30:23;-9.00;48.10
17208;DHT22;8720;48.488;9.202;2022-12-18T07:32:51;-9.00;48.10
17208;DHT22;8720;48.488;9.202;2022-12-18T07:35:18;-9.00;48.10
17208;DHT22;8720;48.488;9.202;2022-12-18T07:37:47;-8.90;48.20
17208;DHT22;8720;48.488;9.202;2022-12-18T07:40:14;-8.90;48.10
17208;DHT22;8720;48.488;9.202;2022-12-18T07:42:41;-8.80;48.30
17208;DHT22;8720;48.488;9.202;2022-12-18T07:45:09;-8.80;48.20
17208;DHT22;8720;48.488;9.202;2022-12-18T07:47:37;-8.80;48.20
17208;DHT22;8720;48.488;9.202;2022-12-18T07:50:05;-8.70;48.30
17208;DHT22;8720;48.488;9.202;2022-12-18T07:52:32;-8.70;48.30
17208;DHT22;8720;48.488;9.202;2022-12-18T07:55:01;-8.70;48.20
17208;DHT22;8720;48.488;9.202;2022-12-18T07:57:28;-8.70;48.20
17208;DHT22;8720;48.488;9.202;2022-12-18T07:59:56;-8.60;48.30
17208;DHT22;8720;48.488;9.202;2022-12-18T08:02:23;-8.60;48.30
17208;DHT22;8720;48.488;9.202;2022-12-18T08:04:50;-8.60;48.30
17208;DHT22;8720;48.488;9.202;2022-12-18T08:07:18;-8.60;48.20
17208;DHT22;8720;48.488;9.202;2022-12-18T08:09:45;-8.50;48.30
17208;DHT22;8720;48.488;9.202;2022-12-18T08:12:13;-8.50;48.30
17208;DHT22;8720;48.488;9.202;2022-12-18T08:14:41;-8.50;48.20
17208;DHT22;8720;48.488;9.202;2022-12-18T08:17:11;-8.50;48.20
17208;DHT22;8720;48.488;9.202;2022-12-18T08:19:38;-8.50;48.20
17208;DHT22;8720;48.488;9.202;2022-12-18T08:22:05;-8.50;48.20
17208;DHT22;8720;48.488;9.202;2022-12-18T08:24:32;-8.40;48.20
17208;DHT22;8720;48.488;9.202;2022-12-18T08:27:00;-8.40;48.30
17208;DHT22;8720;48.488;9.202;2022-12-18T08:29:28;-8.40;48.30
17208;DHT22;8720;48.488;9.202;2022-12-18T08:31:56;-8.40;48.40
17208;DHT22;8720;48.488;9.202;2022-12-18T08:34:23;-8.30;48.50
17208;DHT22;8720;48.488;9.202;2022-12-18T08:36:50;-8.30;48.50
17208;DHT22;8720;48.488;9.202;2022-12-18T08:39:18;-8.30;48.50
17208;DHT22;8720;48.488;9.202;2022-12-18T08:41:45;-8.20;48.60
17208;DHT22;8720;48.488;9.202;2022-12-18T08:44:34;-8.20;48.70
17208;DHT22;8720;48.488;9.202;2022-12-18T08:47:04;-8.10;48.80
17208;DHT22;8720;48.488;9.202;2022-12-18T08:49:32;-8.10;48.80
17208;DHT22;8720;48.488;9.202;2022-12-18T08:52:00;-8.10;48.90
17208;DHT22;8720;48.488;9.202;2022-12-18T08:54:28;-8.00;49.60
17208;DHT22;8720;48.488;9.202;2022-12-18T08:56:57;-8.00;49.10
17208;DHT22;8720;48.488;9.202;2022-12-18T08:59:24;-7.90;49.30
17208;DHT22;8720;48.488;9.202;2022-12-18T09:01:56;-7.90;49.40
17208;DHT22;8720;48.488;9.202;2022-12-18T09:04:23;-7.80;49.50
17208;DHT22;8720;48.488;9.202;2022-12-18T09:06:50;-7.70;49.70
17208;DHT22;8720;48.488;9.202;2022-12-18T09:09:21;-7.60;49.80
17208;DHT22;8720;48.488;9.202;2022-12-18T09:11:48;-7.50;50.00
17208;DHT22;8720;48.488;9.202;2022-12-18T09:14:15;-7.50;50.00
17208;DHT22;8720;48.488;9.202;2022-12-18T09:16:43;-7.40;50.00
17208;DHT22;8720;48.488;9.202;2022-12-18T09:19:11;-7.30;50.10
17208;DHT22;8720;48.488;9.202;2022-12-18T09:21:39;-7.20;50.20
17208;DHT22;8720;48.488;9.202;2022-12-18T09:24:08;-7.20;50.20
17208;DHT22;8720;48.488;9.202;2022-12-18T09:26:41;-7.10;50.40
17208;DHT22;8720;48.488;9.202;2022-12-18T09:29:08;-7.00;50.60
17208;DHT22;8720;48.488;9.202;2022-12-18T09:31:36;-6.90;50.80
17208;DHT22;8720;48.488;9.202;2022-12-18T09:34:04;-6.80;51.00
17208;DHT22;8720;48.488;9.202;2022-12-18T09:36:33;-6.80;51.10
17208;DHT22;8720;48.488;9.202;2022-12-18T09:39:00;-6.70;51.10
17208;DHT22;8720;48.488;9.202;2022-12-18T09:41:41;-6.60;51.70
17208;DHT22;8720;48.488;9.202;2022-12-18T09:44:20;-6.50;50.90
17208;DHT22;8720;48.488;9.202;2022-12-18T09:46:55;-6.50;51.10
17208;DHT22;8720;48.488;9.202;2022-12-18T09:49:36;-6.40;51.70
17208;DHT22;8720;48.488;9.202;2022-12-18T09:52:14;-6.30;52.60
17208;DHT22;8720;48.488;9.202;2022-12-18T09:54:49;-6.10;53.40
17208;DHT22;8720;48.488;9.202;2022-12-18T09:57:22;-5.90;53.90
17208;DHT22;8720;48.488;9.202;2022-12-18T09:59:56;-5.80;54.00
17208;DHT22;8720;48.488;9.202;2022-12-18T10:02:37;-5.60;54.80
17208;DHT22;8720;48.488;9.202;2022-12-18T10:05:07;-5.50;54.10
17208;DHT22;8720;48.488;9.202;2022-12-18T10:07:53;-5.30;53.90
17208;DHT22;8720;48.488;9.202;2022-12-18T10:10:34;-5.20;53.50
17208;DHT22;8720;48.488;9.202;2022-12-18T10:13:16;-5.10;53.50
17208;DHT22;8720;48.488;9.202;2022-12-18T10:16:08;-5.00;53.40
17208;DHT22;8720;48.488;9.202;2022-12-18T10:19:06;-4.90;53.40
17208;DHT22;8720;48.488;9.202;2022-12-18T10:21:51;-4.70;53.70
17208;DHT22;8720;48.488;9.202;2022-12-18T10:24:32;-4.60;54.50
17208;DHT22;8720;48.488;9.202;2022-12-18T10:27:12;-4.50;53.70
17208;DHT22;8720;48.488;9.202;2022-12-18T10:29:42;-4.40;53.70
17208;DHT22;8720;48.488;9.202;2022-12-18T10:32:15;-4.30;53.70
17208;DHT22;8720;48.488;9.202;2022-12-18T10:34:46;-4.20;53.50
17208;DHT22;8720;48.488;9.202;2022-12-18T10:37:16;-4.20;53.50
17208;DHT22;8720;48.488;9.202;2022-12-18T10:39:47;-4.10;53.70
17208;DHT22;8720;48.488;9.202;2022-12-18T10:42:34;-4.00;53.70
17208;DHT22;8720;48.488;9.202;2022-12-18T10:45:03;-3.90;53.90
17208;DHT22;8720;48.488;9.202;2022-12-18T10:47:43;-3.80;54.10
17208;DHT22;8720;48.488;9.202;2022-12-18T10:50:20;-3.70;54.20
17208;DHT22;8720;48.488;9.202;2022-12-18T10:52:54;-3.50;54.40
17208;DHT22;8720;48.488;9.202;2022-12-18T10:55:29;-3.40;54.70
17208;DHT22;8720;48.488;9.202;2022-12-18T10:58:16;-3.30;54.70
17208;DHT22;8720;48.488;9.202;2022-12-18T11:01:06;-3.20;54.50
17208;DHT22;8720;48.488;9.202;2022-12-18T11:03:37;-3.10;54.60
17208;DHT22;8720;48.488;9.202;2022-12-18T11:06:08;-3.00;54.90
17208;DHT22;8720;48.488;9.202;2022-12-18T11:08:37;-2.80;55.00
17208;DHT22;8720;48.488;9.202;2022-12-18T11:11:19;-2.70;55.20
17208;DHT22;8720;48.488;9.202;2022-12-18T11:14:01;-2.60;55.00
17208;DHT22;8720;48.488;9.202;2022-12-18T11:16:34;-2.50;55.10
17208;DHT22;8720;48.488;9.202;2022-12-18T11:19:19;-2.40;55.40
17208;DHT22;8720;48.488;9.202;2022-12-18T11:21:51;-2.30;55.50
17208;DHT22;8720;48.488;9.202;2022-12-18T11:24:22;-2.10;56.50
17208;DHT22;8720;48.488;9.202;2022-12-18T11:26:57;-2.00;55.90
17208;DHT22;8720;48.488;9.202;2022-12-18T11:29:32;-1.90;56.70
17208;DHT22;8720;48.488;9.202;2022-12-18T11:32:21;-1.70;56.30
17208;DHT22;8720;48.488;9.202;2022-12-18T11:35:01;-1.60;56.30
17208;DHT22;8720;48.488;9.202;2022-12-18T11:37:35;-1.50;57.00
17208;DHT22;8720;48.488;9.202;2022-12-18T11:40:09;-1.30;57.70
17208;DHT22;8720;48.488;9.202;2022-12-18T11:42:47;-1.10;58.00
17208;DHT22;8720;48.488;9.202;2022-12-18T11:45:29;-0.90;58.10
17208;DHT22;8720;48.488;9.202;2022-12-18T11:48:04;-0.70;58.10
17208;DHT22;8720;48.488;9.202;2022-12-18T11:50:46;-0.60;58.30
17208;DHT22;8720;48.488;9.202;2022-12-18T11:53:17;-0.40;58.10
17208;DHT22;8720;48.488;9.202;2022-12-18T11:56:05;-0.30;58.00
17208;DHT22;8720;48.488;9.202;2022-12-18T11:58:50;-0.10;56.70
17208;DHT22;8720;48.488;9.202;2022-12-18T12:01:37;0.00;56.80
17208;DHT22;8720;48.488;9.202;2022-12-18T12:04:39;0.00;56.30
17208;DHT22;8720;48.488;9.202;2022-12-18T12:07:37;0.10;55.90
17208;DHT22;8720;48.488;9.202;2022-12-18T12:10:18;0.20;56.20
17208;DHT22;8720;48.488;9.202;2022-12-18T12:13:11;0.20;56.00
17208;DHT22;8720;48.488;9.202;2022-12-18T12:16:07;0.20;56.10
17208;DHT22;8720;48.488;9.202;2022-12-18T12:18:50;0.30;56.20
17208;DHT22;8720;48.488;9.202;2022-12-18T12:21:32;0.30;56.00
17208;DHT22;8720;48.488;9.202;2022-12-18T12:24:19;0.30;56.30
17208;DHT22;8720;48.488;9.202;2022-12-18T12:27:04;0.40;56.20
17208;DHT22;8720;48.488;9.202;2022-12-18T12:29:49;0.40;56.50
17208;DHT22;8720;48.488;9.202;2022-12-18T12:35:47;0.50;56.40
17208;DHT22;8720;48.488;9.202;2022-12-18T12:38:25;0.60;56.20
17208;DHT22;8720;48.488;9.202;2022-12-18T12:41:11;0.70;56.40
17208;DHT22;8720;48.488;9.202;2022-12-18T12:43:57;0.70;56.60
17208;DHT22;8720;48.488;9.202;2022-12-18T12:46:30;0.80;56.70
17208;DHT22;8720;48.488;9.202;2022-12-18T12:49:04;0.80;56.50
17208;DHT22;8720;48.488;9.202;2022-12-18T12:51:42;0.90;56.30
17208;DHT22;8720;48.488;9.202;2022-12-18T12:54:17;1.00;56.40
17208;DHT22;8720;48.488;9.202;2022-12-18T12:56:51;1.00;56.20
17208;DHT22;8720;48.488;9.202;2022-12-18T12:59:28;1.10;56.10
17208;DHT22;8720;48.488;9.202;2022-12-18T13:02:11;1.10;55.60
17208;DHT22;8720;48.488;9.202;2022-12-18T13:04:51;1.10;55.20
17208;DHT22;8720;48.488;9.202;2022-12-18T13:07:28;1.00;55.10
17208;DHT22;8720;48.488;9.202;2022-12-18T13:10:23;1.00;55.10
17208;DHT22;8720;48.488;9.202;2022-12-18T13:12:58;1.00;54.50
17208;DHT22;8720;48.488;9.202;2022-12-18T13:15:32;0.90;54.60
17208;DHT22;8720;48.488;9.202;2022-12-18T13:18:09;0.80;54.50
17208;DHT22;8720;48.488;9.202;2022-12-18T13:20:43;0.80;54.80
17208;DHT22;8720;48.488;9.202;2022-12-18T13:23:33;0.70;54.80
17208;DHT22;8720;48.488;9.202;2022-12-18T13:26:28;0.70;54.40
17208;DHT22;8720;48.488;9.202;2022-12-18T13:28:58;0.70;54.60
17208;DHT22;8720;48.488;9.202;2022-12-18T13:31:58;0.60;55.30
17208;DHT22;8720;48.488;9.202;2022-12-18T13:34:28;0.60;54.30
17208;DHT22;8720;48.488;9.202;2022-12-18T13:37:39;0.60;55.10
17208;DHT22;8720;48.488;9.202;2022-12-18T13:43:28;0.60;54.20
17208;DHT22;8720;48.488;9.202;2022-12-18T13:46:03;0.60;54.80
17208;DHT22;8720;48.488;9.202;2022-12-18T13:48:50;0.60;54.70
17208;DHT22;8720;48.488;9.202;2022-12-18T13:51:21;0.60;54.70
17208;DHT22;8720;48.488;9.202;2022-12-18T13:53:53;0.60;55.00
17208;DHT22;8720;48.488;9.202;2022-12-18T13:56:24;0.60;54.80
17208;DHT22;8720;48.488;9.202;2022-12-18T13:59:14;0.60;54.90
17208;DHT22;8720;48.488;9.202;2022-12-18T14:01:46;0.60;54.20
17208;DHT22;8720;48.488;9.202;2022-12-18T14:04:21;0.60;54.90
17208;DHT22;8720;48.488;9.202;2022-12-18T14:06:56;0.60;54.80
17208;DHT22;8720;48.488;9.202;2022-12-18T14:09:31;0.60;55.00
17208;DHT22;8720;48.488;9.202;2022-12-18T14:12:03;0.60;54.90
17208;DHT22;8720;48.488;9.202;2022-12-18T14:14:51;0.60;55.00
17208;DHT22;8720;48.488;9.202;2022-12-18T14:17:19;0.60;55.60
17208;DHT22;8720;48.488;9.202;2022-12-18T14:19:49;0.60;55.10
17208;DHT22;8720;48.488;9.202;2022-12-18T14:22:19;0.60;55.00
17208;DHT22;8720;48.488;9.202;2022-12-18T14:25:10;0.60;55.00
17208;DHT22;8720;48.488;9.202;2022-12-18T14:27:45;0.60;54.30
17208;DHT22;8720;48.488;9.202;2022-12-18T14:30:27;0.60;54.90
17208;DHT22;8720;48.488;9.202;2022-12-18T14:33:01;0.60;54.40
17208;DHT22;8720;48.488;9.202;2022-12-18T14:35:36;0.60;55.20
17208;DHT22;8720;48.488;9.202;2022-12-18T14:38:21;0.50;54.40
17208;DHT22;8720;48.488;9.202;2022-12-18T14:40:55;0.50;54.20
17208;DHT22;8720;48.488;9.202;2022-12-18T14:43:23;0.50;54.40
17208;DHT22;8720;48.488;9.202;2022-12-18T14:45:51;0.50;54.70
17208;DHT22;8720;48.488;9.202;2022-12-18T14:48:20;0.40;54.60
17208;DHT22;8720;48.488;9.202;2022-12-18T14:51:03;0.40;54.40
17208;DHT22;8720;48.488;9.202;2022-12-18T14:53:35;0.40;54.30
17208;DHT22;8720;48.488;9.202;2022-12-18T14:56:15;0.30;54.10
17208;DHT22;8720;48.488;9.202;2022-12-18T14:58:46;0.30;53.80
17208;DHT22;8720;48.488;9.202;2022-12-18T15:01:24;0.30;54.20
17208;DHT22;8720;48.488;9.202;2022-12-18T15:03:55;0.30;53.90
17208;DHT22;8720;48.488;9.202;2022-12-18T15:06:32;0.20;54.10
17208;DHT22;8720;48.488;9.202;2022-12-18T15:09:03;0.10;53.80
17208;DHT22;8720;48.488;9.202;2022-12-18T15:11:45;0.10;54.10
17208;DHT22;8720;48.488;9.202;2022-12-18T15:14:33;0.10;53.70
17208;DHT22;8720;48.488;9.202;2022-12-18T15:17:06;0.00;53.60
17208;DHT22;8720;48.488;9.202;2022-12-18T15:19:44;-0.10;53.80
17208;DHT22;8720;48.488;9.202;2022-12-18T15:22:19;-0.10;53.80
17208;DHT22;8720;48.488;9.202;2022-12-18T15:24:49;-0.10;53.70
17208;DHT22;8720;48.488;9.202;2022-12-18T15:27:27;-0.20;53.90
17208;DHT22;8720;48.488;9.202;2022-12-18T15:30:15;-0.20;53.70
17208;DHT22;8720;48.488;9.202;2022-12-18T15:32:51;-0.30;53.80
17208;DHT22;8720;48.488;9.202;2022-12-18T15:35:33;-0.30;53.70
17208;DHT22;8720;48.488;9.202;2022-12-18T15:38:04;-0.40;53.90
17208;DHT22;8720;48.488;9.202;2022-12-18T15:40:37;-0.40;54.00
17208;DHT22;8720;48.488;9.202;2022-12-18T15:43:09;-0.40;53.90
17208;DHT22;8720;48.488;9.202;2022-12-18T15:46:01;-0.50;53.90
17208;DHT22;8720;48.488;9.202;2022-12-18T15:48:32;-0.50;53.80
17208;DHT22;8720;48.488;9.202;2022-12-18T15:51:01;-0.50;54.00
17208;DHT22;8720;48.488;9.202;2022-12-18T15:53:32;-0.50;54.10
17208;DHT22;8720;48.488;9.202;2022-12-18T15:56:00;-0.60;54.00
17208;DHT22;8720;48.488;9.202;2022-12-18T15:58:46;-0.60;54.00
17208;DHT22;8720;48.488;9.202;2022-12-18T16:01:13;-0.60;53.90
17208;DHT22;8720;48.488;9.202;2022-12-18T16:03:44;-0.70;53.90
17208;DHT22;8720;48.488;9.202;2022-12-18T16:06:11;-0.70;54.00
17208;DHT22;8720;48.488;9.202;2022-12-18T16:08:39;-0.70;54.10
17208;DHT22;8720;48.488;9.202;2022-12-18T16:11:19;-0.80;54.00
17208;DHT22;8720;48.488;9.202;2022-12-18T16:14:06;-0.80;53.70
17208;DHT22;8720;48.488;9.202;2022-12-18T16:16:43;-0.80;53.90
17208;DHT22;8720;48.488;9.202;2022-12-18T16:19:11;-0.90;54.00
17208;DHT22;8720;48.488;9.202;2022-12-18T16:21:39;-0.90;54.10
17208;DHT22;8720;48.488;9.202;2022-12-18T16:24:11;-0.90;54.10
17208;DHT22;8720;48.488;9.202;2022-12-18T16:26:41;-0.90;54.00
17208;DHT22;8720;48.488;9.202;2022-12-18T16:29:11;-0.90;54.20
17208;DHT22;8720;48.488;9.202;2022-12-18T16:31:41;-1.00;54.10
17208;DHT22;8720;48.488;9.202;2022-12-18T16:43:01;-1.10;55.20
17208;DHT22;8720;48.488;9.202;2022-12-18T16:45:30;-1.00;55.10